createdAt,value
2022-12-08T00:01:09.366Z,1.47
2022-12-08T00:04:16.830Z,1.64
2022-12-08T00:07:42.069Z,1.89
2022-12-08T00:10:50.216Z,1.92
2022-12-08T00:13:57.437Z,1.94
2022-12-08T00:17:05.212Z,1.55
2022-12-08T00:20:12.554Z,1.84
2022-12-08T00:23:19.501Z,1.95
2022-12-08T00:26:26.345Z,1.50
2022-12-08T00:29:32.545Z,1.34
2022-12-08T00:32:39.584Z,1.56
2022-12-08T00:35:46.187Z,1.75
2022-12-08T00:38:53.104Z,1.40
2022-12-08T00:42:14.383Z,1.50
2022-12-08T00:45:22.352Z,1.75
2022-12-08T00:48:28.316Z,1.81
2022-12-08T00:51:35.109Z,1.63
2022-12-08T00:54:41.375Z,1.45
2022-12-08T00:57:47.607Z,1.46
2022-12-08T01:00:53.866Z,1.63
2022-12-08T01:04:07.584Z,1.28
2022-12-08T01:07:14.077Z,1.40
2022-12-08T01:10:20.966Z,1.46
2022-12-08T01:13:27.108Z,1.44
2022-12-08T01:16:36.062Z,1.54
2022-12-08T01:19:42.007Z,1.57
2022-12-08T01:22:48.490Z,1.10
2022-12-08T01:25:55.514Z,0.81
2022-12-08T01:29:01.834Z,1.24
2022-12-08T01:32:09.897Z,0.84
2022-12-08T01:35:16.934Z,0.93
2022-12-08T01:38:23.763Z,0.67
2022-12-08T01:41:33.584Z,0.88
2022-12-08T01:44:40.208Z,0.92
2022-12-08T01:47:49.581Z,1.22
2022-12-08T01:50:57.350Z,1.38
2022-12-08T01:54:06.528Z,1.04
2022-12-08T01:57:23.275Z,1.28
2022-12-08T02:00:30.227Z,0.98
2022-12-08T02:03:44.864Z,1.28
2022-12-08T02:06:52.683Z,1.36
2022-12-08T02:09:59.305Z,1.43
2022-12-08T02:13:10.053Z,1.29
2022-12-08T02:16:38.877Z,1.55
2022-12-08T02:20:06.249Z,1.45
2022-12-08T02:23:26.714Z,1.49
2022-12-08T02:26:53.609Z,1.41
2022-12-08T02:29:59.795Z,1.32
2022-12-08T02:33:33.332Z,1.16
2022-12-08T02:36:56.161Z,1.19
2022-12-08T02:40:22.237Z,1.36
2022-12-08T02:43:37.286Z,1.22
2022-12-08T02:46:59.797Z,1.20
2022-12-08T02:50:07.427Z,1.26
2022-12-08T02:56:52.965Z,0.99
2022-12-08T03:00:11.696Z,0.82
2022-12-08T03:03:26.550Z,0.84
2022-12-08T03:06:32.593Z,0.95
2022-12-08T03:10:09.026Z,0.63
2022-12-08T03:13:57.217Z,0.80
2022-12-08T03:17:05.135Z,0.88
2022-12-08T03:20:15.945Z,0.88
2022-12-08T03:23:25.220Z,0.86
2022-12-08T03:26:55.200Z,0.80
2022-12-08T03:30:02.840Z,0.59
2022-12-08T03:33:21.250Z,0.83
2022-12-08T03:36:27.901Z,0.71
2022-12-08T03:39:34.339Z,0.70
2022-12-08T03:42:40.119Z,0.95
2022-12-08T03:45:46.463Z,0.72
2022-12-08T03:48:53.112Z,0.96
2022-12-08T03:51:59.697Z,0.77
2022-12-08T03:55:06.879Z,0.73
2022-12-08T03:58:13.223Z,0.52
2022-12-08T04:01:19.692Z,0.41
2022-12-08T04:04:26.983Z,0.67
2022-12-08T04:07:34.142Z,0.74
2022-12-08T04:10:41.947Z,0.86
2022-12-08T04:13:49.021Z,0.79
2022-12-08T04:16:55.272Z,0.71
2022-12-08T04:20:01.952Z,0.77
2022-12-08T04:23:10.305Z,0.60
2022-12-08T04:26:18.304Z,0.68
2022-12-08T04:29:24.355Z,0.65
2022-12-08T04:32:30.823Z,0.60
2022-12-08T04:35:36.981Z,0.60
2022-12-08T04:38:43.632Z,0.66
2022-12-08T04:41:50.187Z,0.74
2022-12-08T04:44:56.663Z,0.70
2022-12-08T04:48:03.330Z,0.66
2022-12-08T04:51:19.097Z,0.62
2022-12-08T04:54:25.241Z,0.47
2022-12-08T04:57:32.799Z,0.74
2022-12-08T05:00:39.621Z,0.49
2022-12-08T05:03:45.821Z,0.69
2022-12-08T05:06:52.348Z,0.62
2022-12-08T05:09:58.743Z,0.00
2022-12-08T05:13:05.695Z,0.11
2022-12-08T05:16:15.099Z,0.48
2022-12-08T05:19:21.946Z,0.57
2022-12-08T05:22:29.036Z,0.46
2022-12-08T05:25:36.070Z,0.50
2022-12-08T05:28:43.640Z,0.59
2022-12-08T05:31:51.544Z,0.95
2022-12-08T05:34:58.556Z,0.89
2022-12-08T05:38:06.289Z,0.39
2022-12-08T05:41:16.422Z,0.58
2022-12-08T05:44:23.335Z,0.88
2022-12-08T05:47:34.532Z,0.90
2022-12-08T05:50:49.704Z,0.89
2022-12-08T05:53:57.805Z,0.79
2022-12-08T05:57:04.846Z,1.08
2022-12-08T06:00:11.658Z,0.97
2022-12-08T06:03:20.307Z,0.96
2022-12-08T06:06:27.433Z,0.92
2022-12-08T06:09:33.549Z,0.97
2022-12-08T06:12:40.918Z,0.84
2022-12-08T06:15:48.078Z,0.92
2022-12-08T06:18:54.981Z,1.03
2022-12-08T06:22:01.580Z,1.07
2022-12-08T06:25:10.191Z,1.07
2022-12-08T06:28:18.098Z,1.17
2022-12-08T06:31:27.945Z,1.20
2022-12-08T06:34:35.162Z,1.22
2022-12-08T06:37:42.042Z,1.05
2022-12-08T06:40:58.515Z,0.90
2022-12-08T06:44:07.570Z,0.51
2022-12-08T06:47:14.715Z,0.64
2022-12-08T06:50:23.127Z,0.50
2022-12-08T06:53:31.339Z,0.75
2022-12-08T06:56:39.436Z,0.99
2022-12-08T06:59:47.375Z,0.71
2022-12-08T07:02:54.111Z,0.57
2022-12-08T07:06:04.129Z,0.50
2022-12-08T07:09:44.744Z,0.90
2022-12-08T07:13:10.180Z,1.09
2022-12-08T07:16:16.804Z,0.76
2022-12-08T07:19:25.083Z,0.65
2022-12-08T07:22:33.277Z,0.95
2022-12-08T07:25:40.291Z,1.02
2022-12-08T07:28:48.536Z,1.09
2022-12-08T07:31:55.912Z,1.14
2022-12-08T07:35:03.091Z,0.88
2022-12-08T07:38:12.924Z,1.30
2022-12-08T07:41:23.656Z,1.34
2022-12-08T07:44:35.491Z,1.33
2022-12-08T07:48:07.076Z,1.43
2022-12-08T07:51:30.992Z,1.44
2022-12-08T07:55:37.364Z,1.46
2022-12-08T07:58:57.104Z,1.36
2022-12-08T08:02:23.425Z,0.84
2022-12-08T08:05:49.833Z,1.49
2022-12-08T08:08:57.175Z,1.28
2022-12-08T08:12:30.097Z,1.07
2022-12-08T08:15:35.559Z,1.20
2022-12-08T08:18:45.455Z,1.22
2022-12-08T08:21:53.392Z,1.28
2022-12-08T08:25:00.888Z,1.63
2022-12-08T08:28:07.795Z,1.82
2022-12-08T08:31:14.684Z,1.90
2022-12-08T08:34:20.933Z,2.04
2022-12-08T08:37:28.423Z,2.11
2022-12-08T08:40:36.339Z,2.23
2022-12-08T08:43:42.722Z,2.27
2022-12-08T08:46:51.124Z,2.31
2022-12-08T08:49:58.261Z,2.25
2022-12-08T08:53:05.420Z,2.41
2022-12-08T08:56:14.774Z,2.47
2022-12-08T08:59:20.853Z,2.63
2022-12-08T09:02:26.621Z,2.51
2022-12-08T09:05:32.307Z,2.41
2022-12-08T09:08:38.253Z,2.40
2022-12-08T09:11:44.812Z,2.54
2022-12-08T09:14:50.407Z,2.68
2022-12-08T09:17:56.990Z,2.67
2022-12-08T09:21:17.002Z,2.68
2022-12-08T09:24:23.547Z,2.54
2022-12-08T09:27:32.221Z,2.80
2022-12-08T09:30:37.927Z,2.67
2022-12-08T09:33:44.268Z,2.96
2022-12-08T09:36:49.973Z,2.89
2022-12-08T09:39:56.039Z,3.11
2022-12-08T09:43:19.922Z,3.25
2022-12-08T09:46:29.169Z,3.29
2022-12-08T09:50:07.899Z,3.21
2022-12-08T09:53:18.321Z,3.22
2022-12-08T09:56:27.704Z,3.25
2022-12-08T09:59:35.522Z,3.46
2022-12-08T10:02:47.972Z,3.61
2022-12-08T10:06:13.910Z,3.60
2022-12-08T10:09:26.253Z,3.58
2022-12-08T10:12:55.974Z,3.72
2022-12-08T10:16:31.922Z,3.80
2022-12-08T10:19:42.103Z,3.85
2022-12-08T10:22:57.505Z,4.05
2022-12-08T10:26:16.144Z,4.15
2022-12-08T10:29:21.829Z,4.46
2022-12-08T10:32:34.642Z,4.54
2022-12-08T10:35:50.591Z,4.45
2022-12-08T10:38:57.904Z,4.58
2022-12-08T10:42:21.733Z,4.48
2022-12-08T10:45:37.714Z,4.72
2022-12-08T10:49:05.018Z,4.66
2022-12-08T10:52:24.778Z,4.74
2022-12-08T10:55:41.552Z,4.71
2022-12-08T10:58:48.875Z,4.53
2022-12-08T11:01:57.640Z,4.79
2022-12-08T11:05:04.167Z,4.82
2022-12-08T11:08:12.338Z,4.94
2022-12-08T11:11:21.112Z,5.03
2022-12-08T11:14:32.152Z,4.99
2022-12-08T11:17:44.346Z,4.98
2022-12-08T11:21:02.938Z,5.10
2022-12-08T11:24:30.229Z,5.10
2022-12-08T11:27:48.672Z,5.07
2022-12-08T11:31:00.758Z,4.96
2022-12-08T11:34:10.647Z,5.12
2022-12-08T11:37:29.943Z,5.20
2022-12-08T11:40:43.186Z,5.20
2022-12-08T11:44:30.174Z,5.22
2022-12-08T11:47:56.490Z,5.46
2022-12-08T11:51:33.910Z,5.31
2022-12-08T11:54:47.421Z,5.44
2022-12-08T11:57:58.055Z,5.57
2022-12-08T12:01:05.167Z,5.58
2022-12-08T12:04:41.607Z,5.60
2022-12-08T12:08:04.682Z,5.77
2022-12-08T12:12:08.190Z,5.78
2022-12-08T12:15:29.959Z,5.85
2022-12-08T12:18:46.775Z,5.90
2022-12-08T12:21:56.710Z,5.71
2022-12-08T12:25:03.584Z,5.90
2022-12-08T12:28:13.861Z,5.98
2022-12-08T12:31:25.333Z,6.03
2022-12-08T12:34:37.906Z,5.99
2022-12-08T12:37:44.046Z,5.89
2022-12-08T12:40:50.986Z,5.93
2022-12-08T12:44:13.384Z,5.90
2022-12-08T12:47:56.024Z,5.78
2022-12-08T12:51:41.469Z,5.73
2022-12-08T12:54:50.005Z,5.83
2022-12-08T12:57:58.982Z,5.98
2022-12-08T13:01:13.953Z,6.03
2022-12-08T13:04:20.678Z,5.97
2022-12-08T13:07:31.546Z,5.93
2022-12-08T13:10:49.058Z,6.02
2022-12-08T13:14:04.062Z,5.99
2022-12-08T13:17:14.198Z,5.95
2022-12-08T13:20:26.422Z,6.13
2022-12-08T13:23:38.412Z,6.22
2022-12-08T13:27:08.910Z,6.15
2022-12-08T13:31:12.392Z,6.21
2022-12-08T13:34:29.389Z,6.10
2022-12-08T13:37:54.852Z,6.02
2022-12-08T13:41:03.838Z,6.15
2022-12-08T13:48:30.186Z,6.07
2022-12-08T13:56:51.448Z,5.92
2022-12-08T13:59:25.509Z,6.00
2022-12-08T14:02:48.476Z,5.97
2022-12-08T14:06:12.068Z,6.13
2022-12-08T14:09:25.157Z,6.04
2022-12-08T14:12:33.221Z,5.96
2022-12-08T14:15:41.155Z,5.86
2022-12-08T14:18:46.829Z,5.89
2022-12-08T14:22:02.061Z,5.93
2022-12-08T14:25:14.485Z,5.88
2022-12-08T14:28:22.000Z,5.86
2022-12-08T14:31:29.747Z,5.82
2022-12-08T14:34:41.627Z,5.88
2022-12-08T14:37:55.152Z,5.76
2022-12-08T14:41:08.114Z,5.73
2022-12-08T14:44:24.494Z,5.74
2022-12-08T14:47:33.145Z,5.58
2022-12-08T14:50:42.234Z,5.60
2022-12-08T14:54:01.489Z,5.56
2022-12-08T14:57:10.860Z,5.61
2022-12-08T15:00:22.407Z,5.67
2022-12-08T15:03:32.208Z,5.46
2022-12-08T15:06:38.637Z,5.44
2022-12-08T15:09:47.739Z,5.49
2022-12-08T15:13:20.619Z,5.44
2022-12-08T15:16:29.291Z,5.40
2022-12-08T15:19:35.520Z,5.37
2022-12-08T15:22:46.307Z,5.37
2022-12-08T15:25:55.111Z,5.41
2022-12-08T15:29:30.180Z,5.34
2022-12-08T15:32:35.809Z,5.27
2022-12-08T15:35:43.828Z,5.38
2022-12-08T15:38:49.732Z,5.33
2022-12-08T15:41:56.468Z,5.29
2022-12-08T15:45:01.585Z,5.35
2022-12-08T15:48:07.878Z,5.38
2022-12-08T15:51:14.326Z,5.32
2022-12-08T15:54:19.961Z,5.36
2022-12-08T16:00:58.840Z,5.41
2022-12-08T16:05:11.587Z,5.39
2022-12-08T16:07:32.232Z,5.39
2022-12-08T16:11:10.705Z,5.40
2022-12-08T16:14:36.842Z,5.35
2022-12-08T16:17:29.953Z,5.29
2022-12-08T16:21:05.818Z,5.37
2022-12-08T16:24:08.927Z,5.36
2022-12-08T16:27:59.282Z,5.31
2022-12-08T16:30:48.544Z,5.31
2022-12-08T16:33:54.195Z,5.34
2022-12-08T16:37:00.183Z,5.31
2022-12-08T16:40:07.902Z,5.22
2022-12-08T16:43:14.773Z,5.36
2022-12-08T16:46:27.438Z,5.27
2022-12-08T16:49:33.615Z,5.13
2022-12-08T16:52:39.743Z,5.28
2022-12-08T16:55:49.707Z,5.33
2022-12-08T16:58:55.028Z,5.28
2022-12-08T17:02:00.994Z,5.26
2022-12-08T17:05:07.577Z,5.22
2022-12-08T17:08:14.386Z,5.25
2022-12-08T17:11:22.997Z,5.23
2022-12-08T17:14:29.861Z,5.30
2022-12-08T17:17:37.659Z,5.32
2022-12-08T17:20:44.566Z,5.31
2022-12-08T17:23:50.608Z,5.28
2022-12-08T17:27:00.372Z,5.34
2022-12-08T17:30:09.262Z,5.28
2022-12-08T17:33:15.339Z,5.26
2022-12-08T17:36:23.710Z,5.24
2022-12-08T17:39:29.716Z,5.20
2022-12-08T17:42:36.609Z,5.28
2022-12-08T17:45:48.513Z,5.24
2022-12-08T17:48:54.659Z,5.20
2022-12-08T17:52:03.787Z,5.32
2022-12-08T17:55:10.914Z,5.31
2022-12-08T17:58:17.257Z,5.27
2022-12-08T18:01:24.545Z,5.26
2022-12-08T18:04:32.786Z,5.28
2022-12-08T18:07:39.744Z,5.28
2022-12-08T18:10:47.279Z,5.24
2022-12-08T18:13:53.735Z,5.24
2022-12-08T18:16:59.432Z,5.25
2022-12-08T18:20:07.019Z,5.21
2022-12-08T18:23:14.177Z,5.28
2022-12-08T18:26:21.455Z,5.32
2022-12-08T18:29:26.770Z,5.33
2022-12-08T18:32:33.252Z,5.24
2022-12-08T18:35:40.706Z,5.28
2022-12-08T18:38:46.686Z,5.25
2022-12-08T18:41:53.821Z,5.29
2022-12-08T18:45:03.306Z,5.32
2022-12-08T18:48:09.219Z,5.35
2022-12-08T18:51:23.789Z,5.28
2022-12-08T18:54:49.965Z,5.31
2022-12-08T18:57:55.470Z,5.07
2022-12-08T19:01:01.112Z,5.20
2022-12-08T19:04:39.511Z,5.24
2022-12-08T19:07:36.275Z,5.26
2022-12-08T19:10:42.280Z,5.34
2022-12-08T19:13:48.162Z,5.38
2022-12-08T19:16:54.007Z,5.33
2022-12-08T19:20:00.704Z,5.30
2022-12-08T19:23:08.054Z,5.26
2022-12-08T19:26:13.898Z,5.31
2022-12-08T19:29:19.659Z,5.40
2022-12-08T19:32:26.091Z,5.35
2022-12-08T19:35:31.427Z,5.38
2022-12-08T19:38:57.980Z,5.43
2022-12-08T19:42:23.090Z,5.26
2022-12-08T19:45:29.110Z,5.21
2022-12-08T19:48:35.545Z,5.11
2022-12-08T19:51:41.708Z,5.14
2022-12-08T19:54:47.847Z,5.15
2022-12-08T19:57:57.176Z,5.03
2022-12-08T20:01:03.258Z,5.10
2022-12-08T20:04:09.192Z,5.19
2022-12-08T20:07:15.216Z,5.17
2022-12-08T20:10:25.898Z,5.03
2022-12-08T20:13:48.433Z,4.99
2022-12-08T20:16:54.659Z,5.19
2022-12-08T20:20:05.274Z,5.22
2022-12-08T20:23:14.555Z,5.26
2022-12-08T20:26:22.536Z,5.33
2022-12-08T20:29:29.133Z,5.34
2022-12-08T20:32:34.804Z,5.20
2022-12-08T20:35:40.831Z,5.27
2022-12-08T20:38:48.995Z,5.25
2022-12-08T20:41:56.558Z,5.44
2022-12-08T20:45:02.016Z,5.44
2022-12-08T20:48:07.953Z,5.44
2022-12-08T20:51:16.413Z,5.44
2022-12-08T20:54:22.385Z,5.48
2022-12-08T20:57:28.732Z,5.49
2022-12-08T21:00:35.964Z,5.48
2022-12-08T21:03:44.097Z,5.40
2022-12-08T21:06:50.927Z,5.41
2022-12-08T21:09:57.271Z,5.45
2022-12-08T21:13:03.409Z,5.39
2022-12-08T21:16:13.730Z,5.37
2022-12-08T21:19:20.835Z,5.49
2022-12-08T21:22:26.700Z,5.49
2022-12-08T21:25:33.328Z,5.54
2022-12-08T21:28:40.780Z,5.54
2022-12-08T21:31:47.024Z,5.56
2022-12-08T21:34:53.629Z,5.52
2022-12-08T21:38:01.556Z,5.48
2022-12-08T21:41:11.329Z,5.42
2022-12-08T21:44:20.636Z,5.39
2022-12-08T21:47:26.542Z,5.44
2022-12-08T21:50:32.803Z,5.53
2022-12-08T21:53:38.663Z,5.44
2022-12-08T21:56:45.712Z,5.51
2022-12-08T21:59:51.546Z,5.46
2022-12-08T22:02:58.365Z,5.40
2022-12-08T22:06:10.510Z,5.41
2022-12-08T22:09:16.926Z,5.45
2022-12-08T22:12:23.277Z,5.35
2022-12-08T22:15:32.302Z,5.41
2022-12-08T22:18:38.752Z,5.37
2022-12-08T22:21:44.730Z,5.37
2022-12-08T22:24:51.188Z,5.41
2022-12-08T22:27:57.433Z,5.40
2022-12-08T22:31:14.900Z,5.41
2022-12-08T22:34:20.746Z,5.28
2022-12-08T22:37:27.435Z,5.23
2022-12-08T22:40:33.634Z,5.16
2022-12-08T22:43:40.186Z,5.23
2022-12-08T22:46:46.563Z,5.27
2022-12-08T22:49:52.996Z,5.21
2022-12-08T22:52:58.896Z,5.30
2022-12-08T22:56:10.646Z,5.03
2022-12-08T22:59:16.536Z,5.11
2022-12-08T23:02:22.540Z,5.15
2022-12-08T23:05:33.369Z,4.96
2022-12-08T23:08:40.284Z,5.13
2022-12-08T23:11:47.084Z,5.05
2022-12-08T23:14:52.783Z,5.03
2022-12-08T23:17:59.308Z,5.03
2022-12-08T23:21:08.422Z,5.03
2022-12-08T23:24:15.426Z,5.01
2022-12-08T23:27:21.103Z,5.06
2022-12-08T23:30:26.798Z,5.11
2022-12-08T23:33:32.264Z,4.94
2022-12-08T23:36:38.076Z,4.96
2022-12-08T23:39:47.041Z,4.90
2022-12-08T23:42:52.657Z,5.11
2022-12-08T23:45:58.472Z,5.20
2022-12-08T23:49:05.456Z,5.23
2022-12-08T23:52:13.800Z,5.17
2022-12-08T23:55:19.846Z,5.04
2022-12-08T23:58:25.441Z,5.07
